ADDS METAR Data INFO
IDs: Format: Raw Decoded Include TAF

Data at: 1151 UTC 23 Jun 2018

K0R0 231135Z AUTO 00000KT 9SM BKN010 OVC013 24/23 A2997 RMK AO2
K0R0 231115Z AUTO 20003KT 9SM OVC011 24/23 A2997 RMK AO2
K0R0 231055Z AUTO 20005KT 9SM BKN012 BKN017 24/23 A2996 RMK AO2
K0R0 231035Z AUTO 20004KT 10SM SCT011 BKN018 24/23 A2996 RMK AO2
K0R0 231015Z AUTO 20004KT 10SM SCT010 SCT014 SCT021 24/23 A2995 RMK AO2
K0R0 230955Z AUTO 20005KT 10SM FEW010 24/23 A2995 RMK AO2
K0R0 230935Z AUTO 20007KT 10SM CLR 24/23 A2994 RMK AO2
K0R0 230915Z AUTO 21006KT 10SM CLR 24/23 A2994 RMK AO2
K0R0 230855Z AUTO 22007KT 10SM CLR 24/23 A2994 RMK AO2
K0R0 230835Z AUTO 23005G11KT 10SM CLR 24/23 A2994 RMK AO2
K0R0 230815Z AUTO 23004KT 10SM CLR 24/23 A2993 RMK AO2
K0R0 230755Z AUTO 21004KT 10SM CLR 24/23 A2993 RMK AO2
K0R0 230735Z AUTO 22005KT 10SM CLR 25/23 A2992 RMK AO2
K0R0 230715Z AUTO 21006KT 10SM CLR 25/23 A2992 RMK AO2
K0R0 230655Z AUTO 22005KT 10SM CLR 25/23 A2992 RMK AO2
K0R0 230635Z AUTO 21005KT 10SM CLR 25/23 A2992 RMK AO2
K0R0 230615Z AUTO 22005KT 10SM CLR 25/23 A2992 RMK AO2
K0R0 230555Z AUTO 21006KT 10SM CLR 25/23 A2992 RMK AO2
K0R0 230535Z AUTO 21004KT 10SM CLR 25/23 A2991 RMK AO2
K0R0 230515Z AUTO 19005KT 10SM CLR 24/23 A2991 RMK AO2
K0R0 230455Z AUTO 19005KT 10SM CLR 24/23 A2990 RMK AO2
K0R0 230435Z AUTO 18005KT 10SM CLR 23/22 A2990 RMK AO2
K0R0 230415Z AUTO 00000KT 10SM CLR 23/22 A2989 RMK AO2
K0R0 230355Z AUTO 00000KT 10SM CLR 22/22 A2990 RMK AO2
K0R0 230335Z AUTO 00000KT 10SM CLR 23/22 A2990 RMK AO2
K0R0 230315Z AUTO 00000KT 10SM CLR 23/22 A2989 RMK AO2
K0R0 230255Z AUTO 00000KT 10SM CLR 23/22 A2989 RMK AO2
K0R0 230235Z AUTO 00000KT 10SM CLR 23/22 A2989 RMK AO2
K0R0 230215Z AUTO 00000KT 10SM CLR 23/22 A2990 RMK AO2
K0R0 230155Z AUTO 00000KT -RA FEW032 FEW042 SCT060 24/22 A2989 RMK AO2
K0R0 230135Z AUTO 16005KT 10SM FEW034 SCT049 BKN060 26/20 A2990 RMK AO2
K0R0 230115Z AUTO 36010G16KT 310V020 10SM BKN049 BKN060 BKN070 28/21 A2994 RMK AO2
K0R0 230055Z AUTO 00000KT 10SM BKN055 OVC065 28/24 A2992 RMK AO2
K0R0 230035Z AUTO 00000KT 10SM -DZ SCT055 30/23 A2990 RMK AO2
K0R0 230015Z AUTO 00000KT 10SM -DZ CLR 31/23 A2989 RMK AO2
K0R0 222355Z AUTO 22004KT 10SM -DZ CLR 31/22 A2987 RMK AO2
K0R0 222335Z AUTO 24006G11KT 10SM -DZ CLR 32/22 A2987 RMK AO2
K0R0 222315Z AUTO 24007KT 10SM -DZ FEW050 32/21 A2988 RMK AO2
K0R0 222255Z AUTO 25005KT 10SM -DZ SCT050 SCT055 33/22 A2989 RMK AO2
K0R0 222235Z AUTO 26009KT 220V300 10SM -DZ FEW055 34/21 A2987 RMK AO2
K0R0 222215Z AUTO 23007G13KT 10SM -DZ SCT050 SCT065 34/22 A2988 RMK AO2
K0R0 222155Z AUTO 23009KT 10SM -DZ BKN050 34/22 A2988 RMK AO2
K0R0 222135Z AUTO VRB06G14KT 10SM -DZ FEW050 FEW055 34/22 A2989 RMK AO2
K0R0 222115Z AUTO 25013G19KT 10SM -DZ CLR 34/21 A2988 RMK AO2
K0R0 222055Z AUTO 24007G12KT 10SM -DZ FEW049 FEW060 34/22 A2989 RMK AO2
K0R0 222035Z AUTO 23012KT 10SM -DZ FEW049 SCT055 33/22 A2990 RMK AO2
K0R0 222015Z AUTO 23012KT 10SM -DZ CLR 33/22 A2991 RMK AO2
K0R0 221955Z AUTO VRB06KT 10SM -DZ FEW046 FEW055 32/22 A2992 RMK AO2
K0R0 221935Z AUTO 23007KT 10SM -DZ SCT046 SCT055 32/22 A2993 RMK AO2
K0R0 221915Z AUTO 23008KT 10SM -DZ FEW041 FEW050 32/23 A2994 RMK AO2
K0R0 221855Z AUTO VRB05G11KT 10SM -DZ CLR 32/24 A2994 RMK AO2
K0R0 221835Z AUTO 25007KT 220V280 10SM -DZ FEW038 FEW045 32/24 A2995 RMK AO2
K0R0 221815Z AUTO 25008G14KT 10SM -DZ CLR 31/23 A2996 RMK AO2
K0R0 221755Z AUTO 22010KT 10SM -DZ FEW043 31/23 A2996 RMK AO2
K0R0 221735Z AUTO 24009KT 10SM -DZ FEW032 FEW040 31/23 A2997 RMK AO2
K0R0 221715Z AUTO 24007G15KT 200V280 10SM -DZ SCT032 31/24 A2997 RMK AO2
K0R0 221655Z AUTO 22008G15KT 10SM -DZ SCT032 31/23 A2997 RMK AO2
K0R0 221635Z AUTO 24008G17KT 10SM -DZ FEW027 SCT033 SCT038 30/23 A2997 RMK AO2
K0R0 221615Z AUTO 24009KT 10SM BKN028 BKN037 29/24 A2997 RMK AO2
K0R0 221555Z AUTO 23009KT 10SM FEW024 BKN030 OVC036 29/23 A2997 RMK AO2
K0R0 221535Z AUTO 24007KT 10SM SCT024 BKN030 29/23 A2997 RMK AO2
K0R0 221515Z AUTO VRB05KT 10SM FEW019 BKN029 29/24 A2997 RMK AO2
K0R0 221455Z AUTO 25006KT 10SM BKN021 OVC027 28/23 A2997 RMK AO2
K0R0 221435Z AUTO 23008G14KT 9SM BKN019 BKN025 28/24 A2997 RMK AO2
K0R0 221415Z AUTO 23010KT 210V270 9SM BKN018 OVC023 27/24 A2996 RMK AO2
K0R0 221355Z AUTO 23006G13KT 10SM OVC018 27/24 A2997 RMK AO2
K0R0 221335Z AUTO 24008KT 8SM OVC016 26/24 A2997 RMK AO2
K0R0 221315Z AUTO 25006KT 7SM OVC015 26/24 A2997 RMK AO2
K0R0 221255Z AUTO 24006KT 6SM BR BKN013 OVC020 25/24 A2997 RMK AO2
K0R0 221235Z AUTO 23003KT 6SM BR BKN013 25/24 A2997 RMK AO2
K0R0 221215Z AUTO 21004KT 6SM BR BKN011 25/24 A2996 RMK AO2
K0R0 221155Z AUTO 23004KT 5SM BR BKN010 24/23 A2996 RMK AO2
K0R0 221135Z AUTO 00000KT 5SM BR BKN010 24/23 A2996 RMK AO2
K0R0 221115Z AUTO 24004KT 5SM BR BKN009 BKN013 24/23 A2996 RMK AO2
K0R0 221055Z AUTO 00000KT 5SM BR BKN010 24/23 A2996 RMK AO2
K0R0 221035Z AUTO 00000KT 6SM BR BKN010 24/23 A2996 RMK AO2
K0R0 221015Z AUTO 22003KT 6SM BR OVC008 24/23 A2996 RMK AO2
K0R0 220955Z AUTO 23005KT 7SM OVC008 24/23 A2995 RMK AO2
K0R0 220935Z AUTO 23004KT 7SM OVC008 24/24 A2994 RMK AO2
K0R0 220915Z AUTO 22006KT 7SM OVC006 24/24 A2993 RMK AO2
K0R0 220855Z AUTO 22004KT 7SM OVC006 24/24 A2993 RMK AO2
K0R0 220835Z AUTO 00000KT 5SM BR OVC006 23/23 A2992 RMK AO2
K0R0 220815Z AUTO 00000KT 3SM BR BKN007 23/22 A2992 RMK AO2
K0R0 220755Z AUTO 00000KT 1/2SM BR BKN008 23/22 A2992 RMK AO2
K0R0 220735Z AUTO 00000KT 4SM BR FEW008 23/23 A2992 RMK AO2
K0R0 220715Z AUTO 18004KT 4SM BR CLR 23/23 A2992 RMK AO2
K0R0 220655Z AUTO 00000KT 5SM BR CLR 23/22 A2992 RMK AO2
K0R0 220635Z AUTO 00000KT 1SM BR CLR 23/22 A2992 RMK AO2
K0R0 220615Z AUTO 00000KT 3SM BR CLR 23/22 A2993 RMK AO2
K0R0 220555Z AUTO 00000KT 5SM BR CLR 23/22 A2993 RMK AO2
K0R0 220535Z AUTO 00000KT 6SM BR CLR 23/23 A2994 RMK AO2
K0R0 220515Z AUTO 00000KT 10SM CLR 23/23 A2995 RMK AO2
K0R0 220455Z AUTO 00000KT 10SM CLR 24/23 A2995 RMK AO2
K0R0 220435Z AUTO 00000KT 10SM CLR 24/23 A2995 RMK AO2
K0R0 220415Z AUTO 00000KT 6SM BR CLR 23/23 A2995 RMK AO2
K0R0 220355Z AUTO 00000KT 1/2SM BR VV005 23/23 A2995 RMK AO2
K0R0 220335Z AUTO 00000KT 5SM BR CLR 24/24 A2995 RMK AO2
K0R0 220315Z AUTO 00000KT 8SM CLR 24/24 A2995 RMK AO2
K0R0 220255Z AUTO 00000KT 7SM CLR 24/24 A2994 RMK AO2
K0R0 220235Z AUTO 21004KT 8SM CLR 25/24 A2994 RMK AO2
K0R0 220215Z AUTO 18004KT 10SM CLR 25/24 A2994 RMK AO2
K0R0 220155Z AUTO 18004KT 10SM CLR 25/24 A2993 RMK AO2
K0R0 220135Z AUTO 18003KT 10SM CLR 25/24 A2994 RMK AO2
K0R0 220115Z AUTO 19004KT 10SM CLR 25/24 A2993 RMK AO2
K0R0 220055Z AUTO 17004KT 10SM CLR 26/24 A2992 RMK AO2
K0R0 220035Z AUTO 19006KT 10SM FEW013 26/24 A2992 RMK AO2
K0R0 220015Z AUTO 17006KT 10SM SCT012 26/24 A2992 RMK AO2
K0R0 212355Z AUTO 16005KT 10SM -DZ FEW009 FEW013 27/25 A2992 RMK AO2